Latest Coastal Weather Observations for Maatsuyker Island

IDT60701

Issued at 3:21 am EST Monday 2 May 2016 (issued every 10 minutes, with the page automatically refreshed every 10 minutes)

About coastal observations | Map of coastal stations | Coastal observations for TAS | Marine services | Other Formats
Station Details ID: 094041 Name: MAATSUYKER ISLAND LIGHTHOUSE Lat: -43.66 Lon: 146.27 Height: 146.5 m
Data from the previous 72 hours. | See also: Recent months at Maatsuyker Island
Date/Time
EST
Temp

°C
Wind Pressure Rain
since 9am
mm
Weather Cloud Vis
km
Sea
Height
m
Swell
Dir
 
Speed
knots
Gust
knots
hPa Trend Height
m
Period
s
Dir
02/03:00am 10.5 NW 50 59 998.7 - 24.6 - - - - - - -
02/02:30am 10.4 NW 50 55 998.7 - 24.6 - - - - - - -
02/02:05am 9.9 NW 47 60 997.5 - 24.6 - - - - - - -
02/02:00am 10.2 NW 46 53 999.1 - 24.6 - - - - - - -
02/01:30am 10.1 NW 50 59 999.0 - 24.6 - - - - - - -
02/01:23am 9.9 NW 47 58 998.6 - 24.6 - - - - - - -
02/01:07am 9.3 NW 49 52 999.0 - 24.6 - - - - - - -
02/01:03am 9.5 WNW 38 52 999.5 - 24.6 - - - - - - -
02/01:00am 9.3 WNW 38 46 999.9 - 24.6 - - - - - - -
02/12:30am 10.1 WNW 43 50 999.8 - 24.6 - - - - - - -
02/12:00am 9.5 NW 45 53 999.6 - 24.6 - - - - - - -
 
Date/Time
EST
Temp

°C
Wind Pressure Rain
since 9am
mm
Weather Cloud Vis
km
Sea
Height
m
Swell
Dir
 
Speed
knots
Gust
knots
hPa Trend Height
m
Period
s
Dir
01/11:43pm 9.1 WNW 41 51 1000.1 - 24.6 - - - - - - -
01/11:30pm 9.5 WNW 41 48 1000.2 - 24.6 - - - - - - -
01/11:00pm 9.2 NW 43 53 1000.1 - 24.4 - - - - - - -
01/10:44pm 9.0 NW 45 55 1000.3 - 24.4 - - - - - - -
01/10:30pm 9.5 NW 47 53 1000.2 - 24.4 - - - - - - -
01/10:26pm 9.2 NW 49 53 999.8 - 24.4 - - - - - - -
01/10:00pm 9.5 WNW 37 45 1000.5 - 24.4 - - - - - - -
01/09:30pm 9.0 WNW 37 49 1001.0 - 24.4 - - - - - - -
01/09:01pm 8.9 WNW 39 49 1000.4 - 24.4 - - - - - - -
01/09:00pm 9.2 WNW 39 47 1000.3 - 24.4 - - - - - - -
01/08:44pm 9.5 WNW 40 50 999.4 - 24.4 - - - - - - -
01/08:30pm 9.1 WNW 38 46 1000.2 - 24.4 - - - - - - -
01/08:03pm 8.4 W 31 41 1000.1 - 24.4 - - - - - - -
01/08:00pm 8.7 W 32 39 1000.2 - 24.2 - - - - - - -
01/07:46pm 8.9 WNW 39 49 999.8 - 24.0 - - - - - - -
01/07:30pm 9.2 WNW 41 49 999.1 - 24.0 - - - - - - -
01/07:06pm 9.6 WNW 40 50 998.4 - 24.0 - - - - - - -
01/07:05pm 9.6 WNW 41 50 998.2 - 24.0 - - - - - - -
01/07:04pm 10.0 W 31 49 997.9 - 24.0 - - - - - - -
01/07:00pm 9.9 W 28 38 998.2 - 23.6 - - - - - - -
01/06:30pm 9.7 W 33 44 997.0 - 23.2 - - - - - - -
01/06:00pm 9.8 W 30 44 996.4 - 22.4 - - - - - - -
01/05:30pm 10.4 WSW 37 47 994.7 - 22.0 - - - - - - -
01/05:00pm 10.7 SW 38 50 993.0 - 21.4 - - - - - - -
01/04:54pm 10.5 SW 34 44 993.0 - 21.4 - - - - - - -
01/04:53pm 10.5 SW 34 42 992.9 - 21.4 - - - - - - -
01/04:39pm 10.7 SW 44 54 992.2 - 21.2 - - - - - - -
01/04:30pm 10.4 WSW 45 54 991.9 - 21.0 - - - - - - -
01/04:28pm 10.6 WSW 43 50 991.9 - 21.0 - - - - - - -
01/04:02pm 11.4 SSW 39 49 990.3 - 20.0 - - - - - - -
01/04:00pm 11.5 SSW 40 49 990.2 - 20.0 - - - - - - -
01/03:52pm 11.6 SSW 41 48 989.9 - 19.6 - - - - - - -
01/03:49pm 11.8 SSW 27 40 989.8 - 19.4 - - - - - - -
01/03:30pm 11.9 SSW 27 29 989.1 - 18.4 - - - - - - -
01/03:28pm 12.1 SSW 16 28 989.1 - 18.0 - - - - - - -
01/03:26pm 12.2 SSW 15 24 989.1 - 17.8 - - - - - - -
01/03:00pm 12.4 W 5 7 988.9 - 12.4 - - - - - - -
01/02:30pm 12.3 NNW 4 6 988.7 - 5.4 - - - - - - -
01/02:00pm 12.5 NE 1 7 988.7 - 4.6 - - - - - - -
01/01:30pm 12.9 NE 3 6 989.0 - 3.4 - - - - - - -
01/01:00pm 13.5 NW 2 5 989.7 - 3.0 - - - - - - -
01/12:30pm 13.1 NW 2 4 990.2 - 3.0 - - - - - - -
01/12:00pm 13.2 NNW 3 4 990.8 - 3.0 - - - - - - -
01/11:30am 12.8 NW 3 6 991.7 - 2.6 - - - - - - -
01/11:00am 12.7 NW 4 7 992.4 - 2.4 - - - - - - -
01/10:30am 12.8 N 4 6 992.8 - 2.2 - - - - - - -
01/10:00am 12.9 NNW 2 6 994.0 - 1.0 - - - - - - -
01/09:30am 12.9 E 5 10 995.2 - 0.6 - - - - - - -
01/09:00am 12.9 SE 5 9 996.1 F 7.4 Rain Cloudy 5 1 4.0 13 W
01/08:30am 13.1 N 1 4 996.6 - 6.4 - - - - - - -
01/08:00am 13.0 NNE 3 6 997.2 - 5.0 - - - - - - -
01/07:30am 13.5 WNW 7 9 997.3 - 3.6 - - - - - - -
01/07:00am 14.1 NW 14 16 997.5 - 3.0 - - - - - - -
01/06:30am 13.5 N 8 13 998.2 - 3.0 - - - - - - -
01/06:00am 13.9 NE 11 22 997.6 F 2.8 Thunder Cloudy 15 1 3.5 13 W
01/05:30am 13.3 ENE 11 18 998.3 - 2.8 - - - - - - -
01/05:00am 12.9 ENE 9 12 998.6 - 2.8 - - - - - - -
01/04:30am 12.8 N 8 14 999.9 - 2.4 - - - - - - -
01/04:11am 13.4 NNW 23 29 1000.6 - 1.4 - - - - - - -
01/04:04am 13.5 NW 34 44 1000.1 - 1.0 - - - - - - -
01/04:00am 13.9 NW 35 44 999.9 - 0.6 - - - - - - -
01/03:47am 15.9 NW 31 37 999.8 - 0.0 - - - - - - -
01/03:45am 16.4 NNW 19 29 999.8 - 0.0 - - - - - - -
01/03:30am 17.4 NNE 10 15 999.0 - 0.0 - - - - - - -
01/03:00am 17.4 NE 10 16 999.5 - 0.0 - - - - - - -
01/02:30am 16.9 NNE 11 15 1000.0 - 0.0 - - - - - - -
01/02:00am 16.9 N 12 17 1000.5 - 0.0 - - - - - - -
01/01:30am 17.2 N 14 21 1001.4 - 0.0 - - - - - - -
01/01:24am 16.9 N 15 25 1001.5 - 0.0 - - - - - - -
01/01:00am 16.9 N 15 23 1002.0 - 0.0 - - - - - - -
01/12:30am 16.5 N 15 24 1002.7 - 0.0 - - - - - - -
01/12:10am 16.3 N 15 25 1003.2 - 0.0 - - - - - - -
01/12:00am 16.6 NNW 18 24 1003.2 - 0.0 - - - - - - -
 
Date/Time
EST
Temp

°C
Wind Pressure Rain
since 9am
mm
Weather Cloud Vis
km
Sea
Height
m
Swell
Dir
 
Speed
knots
Gust
knots
hPa Trend Height
m
Period
s
Dir
30/11:30pm 16.2 N 16 23 1004.1 - 0.0 - - - - - - -
30/11:26pm 16.3 NNW 16 26 1004.2 - 0.0 - - - - - - -
30/11:00pm 16.0 NNW 16 25 1004.7 - 0.0 - - - - - - -
30/10:56pm 16.0 NNW 15 25 1004.7 - 0.0 - - - - - - -
30/10:30pm 15.9 NNW 17 21 1005.3 - 0.0 - - - - - - -
30/10:00pm 15.5 N 12 18 1005.4 - 0.0 - - - - - - -
30/09:30pm 15.4 N 12 16 1005.3 - 0.0 - - - - - - -
30/09:00pm 15.3 NNW 11 16 1005.5 - 0.0 - - - - - - -
30/08:30pm 15.7 NNW 15 19 1005.4 - 0.0 - - - - - - -
30/08:00pm 15.7 NNW 15 19 1005.5 - 0.0 - - - - - - -
30/07:30pm 16.0 NNW 16 21 1005.5 - 0.0 - - - - - - -
30/07:00pm 16.1 NNW 16 21 1005.6 - 0.0 - - - - - - -
30/06:30pm 16.4 NNW 19 23 1005.8 - 0.0 - - - - - - -
30/06:00pm 16.5 NNW 17 24 1005.7 - 0.0 - - - - - - -
30/05:30pm 16.7 NNW 18 24 1005.5 - 0.0 - - - - - - -
30/05:00pm 17.1 NNW 18 25 1005.4 - 0.0 - - - - - - -
30/04:30pm 17.6 NNW 19 27 1005.6 - 0.0 - - - - - - -
30/04:05pm 17.6 NNW 23 33 1005.6 - 0.0 - - - - - - -
30/04:00pm 17.7 NNW 24 33 1005.5 - 0.0 - - - - - - -
30/03:54pm 17.5 NNW 20 30 1005.3 - 0.0 - - - - - - -
30/03:30pm 17.2 NNW 18 23 1005.9 - 0.0 - - - - - - -
30/03:00pm 18.0 NNW 20 25 1005.6 - 0.0 - - - - - - -
30/02:30pm 17.5 NNW 21 28 1005.8 - 0.0 - - - - - - -
30/02:00pm 17.3 NNW 16 21 1005.8 - 0.0 - - - - - - -
30/01:30pm 17.9 NNW 17 23 1006.1 - 0.0 - - - - - - -
30/01:11pm 17.3 NNW 17 27 1006.2 - 0.0 - - - - - - -
30/01:00pm 18.2 NNW 19 25 1006.2 - 0.0 - - - - - - -
30/12:30pm 17.7 NNW 19 25 1006.6 - 0.0 - - - - - - -
30/12:00pm 17.5 NNW 19 27 1007.1 - 0.0 - - - - - - -
30/11:30am 17.4 NNW 21 29 1007.3 - 0.0 - - - - - - -
30/11:00am 17.0 NNW 19 27 1007.7 - 0.0 - - - - - - -
30/10:53am 16.8 NNW 18 28 1007.9 - 0.0 - - - - - - -
30/10:30am 16.2 NNW 19 27 1008.0 - 0.0 - - - - - - -
30/10:00am 15.9 NNW 21 29 1008.1 - 0.0 - - - - - - -
30/09:30am 15.8 N 18 26 1008.4 - 0.0 - - - - - - -
30/09:00am 15.3 N 16 23 1008.5 F 6.4 Fine Partly cloudy 30 1 1.5 12 W
30/08:30am 15.1 N 18 24 1008.6 - 6.4 - - - - - - -
30/08:00am 14.7 N 17 23 1008.6 - 6.4 - - - - - - -
30/07:30am 14.6 N 17 24 1008.5 - 6.4 - - - - - - -
30/07:00am 14.6 N 17 22 1008.3 - 6.4 - - - - - - -
30/06:30am 14.5 NNW 16 22 1008.4 - 6.4 - - - - - - -
30/06:00am 14.5 N 17 23 1008.2 F 6.4 Fine Mostly cloudy 20 1 1.0 11 SW
30/05:30am 14.2 NNW 18 25 1008.2 - 6.4 - - - - - - -
30/05:00am 14.5 NNW 20 26 1008.2 - 6.4 - - - - - - -
30/04:30am 14.5 NNW 19 24 1008.1 - 6.4 - - - - - - -
30/04:00am 14.3 NNW 18 23 1008.1 - 6.4 - - - - - - -
30/03:30am 14.1 NNW 18 24 1008.0 - 6.4 - - - - - - -
30/03:12am 14.4 NNW 18 28 1008.1 - 6.4 - - - - - - -
30/03:00am 14.3 NNW 20 26 1008.0 - 6.4 - - - - - - -
30/02:30am 14.1 NNW 19 26 1008.2 - 6.4 - - - - - - -
30/02:00am 13.9 NNW 18 23 1008.5 - 6.4 - - - - - - -
30/01:30am 14.1 NNW 19 22 1008.4 - 6.4 - - - - - - -
30/01:00am 14.5 NNW 19 25 1008.5 - 6.4 - - - - - - -
30/12:30am 14.6 NNW 20 26 1008.3 - 6.4 - - - - - - -
30/12:06am 14.6 NNW 19 29 1008.5 - 6.4 - - - - - - -
30/12:00am 14.8 NNW 22 29 1008.3 - 6.4 - - - - - - -
 
Date/Time
EST
Temp

°C
Wind Pressure Rain
since 9am
mm
Weather Cloud Vis
km
Sea
Height
m
Swell
Dir
 
Speed
knots
Gust
knots
hPa Trend Height
m
Period
s
Dir
29/11:30pm 14.9 NNW 21 29 1008.3 - 6.4 - - - - - - -
29/11:07pm 14.8 NNW 22 32 1008.6 - 6.4 - - - - - - -
29/11:00pm 14.9 NNW 25 32 1008.2 - 6.4 - - - - - - -
29/10:30pm 14.8 NNW 23 29 1008.6 - 6.4 - - - - - - -
29/10:20pm 14.8 NNW 22 33 1008.4 - 6.4 - - - - - - -
29/10:00pm 14.8 NNW 23 31 1008.4 - 6.4 - - - - - - -
29/09:47pm 14.7 NNW 23 34 1008.1 - 6.4 - - - - - - -
29/09:30pm 14.7 NNW 19 25 1008.1 - 6.4 - - - - - - -
29/09:00pm 14.9 NNW 20 27 1007.7 - 6.4 - - - - - - -
29/08:30pm 14.9 NNW 20 26 1007.3 - 6.4 - - - - - - -
29/08:00pm 14.9 NNW 21 28 1006.9 - 6.4 - - - - - - -
29/07:30pm 14.9 NNW 24 32 1006.7 - 6.4 - - - - - - -
29/07:00pm 14.8 NNW 26 33 1006.7 - 6.4 - - - - - - -
29/06:30pm 14.6 NNW 25 34 1006.4 - 6.4 - - - - - - -
29/06:00pm 14.1 NNW 21 31 1006.7 - 6.4 - - - - - - -
29/05:58pm 14.2 NNW 21 31 1006.9 - 6.4 - - - - - - -
29/05:30pm 14.9 NNW 18 26 1006.6 - 3.8 - - - - - - -
29/05:00pm 15.1 NNW 21 27 1006.6 - 3.6 - - - - - - -
29/04:30pm 14.9 NNW 17 22 1006.7 - 3.6 - - - - - - -
29/04:00pm 15.0 NNW 17 22 1007.0 - 3.2 - - - - - - -
29/03:30pm 15.0 N 19 24 1006.9 - 2.2 - - - - - - -
29/03:00pm 15.3 N 18 23 1006.8 - 1.4 - - - - - - -
29/02:35pm 15.8 N 16 27 1006.7 - 0.8 - - - - - - -
29/02:30pm 15.7 N 16 20 1006.8 - 0.8 - - - - - - -
29/02:00pm 16.4 NNW 15 19 1006.8 - 0.2 - - - - - - -
29/01:30pm 16.9 NNW 11 17 1007.4 - 0.2 - - - - - - -
29/01:00pm 17.1 NNW 17 22 1007.8 - 0.2 - - - - - - -
29/12:31pm 17.1 NNW 18 28 1008.1 - 0.2 - - - - - - -
29/12:30pm 17.2 NNW 19 28 1008.0 - 0.2 - - - - - - -
29/12:29pm 17.2 N 18 28 1008.0 - 0.2 - - - - - - -
29/12:00pm 16.6 N 12 17 1008.5 - 0.2 - - - - - - -
29/11:30am 16.3 N 12 16 1009.1 - 0.2 - - - - - - -
29/11:00am 15.4 N 11 15 1010.1 - 0.2 - - - - - - -
29/10:30am 15.2 N 6 13 1010.7 - 0.2 - - - - - - -
29/10:00am 14.5 E 4 5 1011.3 - 0.2 - - - - - - -
29/09:30am 14.5 NNW 5 7 1011.6 - 0.2 - - - - - - -
29/09:00am 14.5 N 8 11 1011.6 F 1.4 Distant precip. Cloudy 18 <0.5 2.5 11 SW
29/08:30am 14.3 NNE 11 17 1012.0 - 1.2 - - - - - - -
29/08:00am 13.8 N 7 12 1012.6 - 1.2 - - - - - - -
29/07:30am 13.9 N 9 15 1012.9 - 0.4 - - - - - - -
29/07:00am 13.9 N 9 13 1012.9 - 0.2 - - - - - - -
29/06:30am 14.2 N 10 14 1012.9 - 0.2 - - - - - - -
29/06:00am 13.9 N 10 13 1013.1 F 0.2 Drizzle Cloudy 25 <0.5 2.5 12 W
29/05:30am 13.4 NNE 11 16 1013.0 - 0.2 - - - - - - -
29/05:00am 14.1 N 11 18 1013.6 - 0.0 - - - - - - -
29/04:30am 14.3 NNE 11 15 1013.7 - 0.0 - - - - - - -
29/04:00am 14.2 NNE 8 12 1013.7 - 0.0 - - - - - - -
29/03:30am 13.9 NNE 10 13 1014.0 - 0.0 - - - - - - -

Other Formats:

Comma delimited format used in spreadsheet applications
http://www.bom.gov.au/fwo/IDT60701/IDT60701.94962.axf

JavaScript Object Notation format (JSON) in row-major order
http://www.bom.gov.au/fwo/IDT60701/IDT60701.94962.json